Afonso Claudio, Brazil
Current Conditions -  °F | °C
As of 5:00 PM on Thursday 27 Nov 2014 (Local Time) from SBVT Reporting Station
Few Clouds Few Clouds  
Wind Chill: 82°   Ceiling: Unl
Heat Index: 85°   Visibility: 6mi
Dew Point: 68°   Wind: 20mph
Humidity: 62%   Direction: 40°NE
Pressure: 29.8"   Gusts: NA
Location:  20.07°S, 41.12°W
Report Text: SBVT 271900Z 04017KT 9999 FEW030 28/20 Q1009
Loading
Personal Weather Stations






























Interactive Weather Map New forecast layout! Learn more

10-Day Weather Forecast

Advertisements
Track Severe Weather on mobile